sensor_id;sensor_type;location;lat;lon;timestamp;P1;durP1;ratioP1;P2;durP2;ratioP2
61393;SDS011;48555;50.952;-0.120;2024-03-17T00:02:20;7.72;;;4.32;;
61393;SDS011;48555;50.952;-0.120;2024-03-17T00:04:46;9.02;;;4.88;;
61393;SDS011;48555;50.952;-0.120;2024-03-17T00:07:14;7.63;;;4.55;;
61393;SDS011;48555;50.952;-0.120;2024-03-17T00:09:40;8.30;;;4.60;;
61393;SDS011;48555;50.952;-0.120;2024-03-17T00:12:06;10.50;;;5.15;;
61393;SDS011;48555;50.952;-0.120;2024-03-17T00:14:32;7.93;;;5.35;;
61393;SDS011;48555;50.952;-0.120;2024-03-17T00:16:59;8.98;;;4.78;;
61393;SDS011;48555;50.952;-0.120;2024-03-17T00:19:25;10.55;;;5.50;;
61393;SDS011;48555;50.952;-0.120;2024-03-17T00:21:51;12.18;;;6.00;;
61393;SDS011;48555;50.952;-0.120;2024-03-17T00:24:16;11.80;;;5.55;;
61393;SDS011;48555;50.952;-0.120;2024-03-17T00:26:42;11.63;;;6.10;;
61393;SDS011;48555;50.952;-0.120;2024-03-17T00:29:07;9.07;;;6.22;;
61393;SDS011;48555;50.952;-0.120;2024-03-17T00:31:33;11.23;;;6.30;;
61393;SDS011;48555;50.952;-0.120;2024-03-17T00:33:59;8.82;;;5.88;;
61393;SDS011;48555;50.952;-0.120;2024-03-17T00:36:24;11.88;;;6.35;;
61393;SDS011;48555;50.952;-0.120;2024-03-17T00:38:49;9.10;;;5.97;;
61393;SDS011;48555;50.952;-0.120;2024-03-17T00:41:16;10.38;;;6.20;;
61393;SDS011;48555;50.952;-0.120;2024-03-17T00:43:42;11.95;;;5.93;;
61393;SDS011;48555;50.952;-0.120;2024-03-17T00:46:07;12.27;;;6.32;;
61393;SDS011;48555;50.952;-0.120;2024-03-17T00:48:32;13.00;;;6.10;;
61393;SDS011;48555;50.952;-0.120;2024-03-17T00:50:58;12.05;;;6.32;;
61393;SDS011;48555;50.952;-0.120;2024-03-17T00:53:27;14.77;;;5.97;;
61393;SDS011;48555;50.952;-0.120;2024-03-17T00:55:53;11.77;;;5.65;;
61393;SDS011;48555;50.952;-0.120;2024-03-17T00:58:22;12.98;;;6.30;;
61393;SDS011;48555;50.952;-0.120;2024-03-17T01:00:47;11.80;;;5.80;;
61393;SDS011;48555;50.952;-0.120;2024-03-17T01:03:16;14.73;;;6.60;;
61393;SDS011;48555;50.952;-0.120;2024-03-17T01:05:41;12.23;;;6.85;;
61393;SDS011;48555;50.952;-0.120;2024-03-17T01:08:09;16.73;;;7.47;;
61393;SDS011;48555;50.952;-0.120;2024-03-17T01:10:38;13.02;;;7.20;;
61393;SDS011;48555;50.952;-0.120;2024-03-17T01:13:07;12.75;;;7.28;;
61393;SDS011;48555;50.952;-0.120;2024-03-17T01:15:37;12.27;;;7.65;;
61393;SDS011;48555;50.952;-0.120;2024-03-17T01:18:03;14.95;;;8.70;;
61393;SDS011;48555;50.952;-0.120;2024-03-17T01:20:29;21.52;;;8.80;;
61393;SDS011;48555;50.952;-0.120;2024-03-17T01:22:55;19.92;;;9.45;;
61393;SDS011;48555;50.952;-0.120;2024-03-17T01:25:20;17.60;;;8.40;;
61393;SDS011;48555;50.952;-0.120;2024-03-17T01:27:46;16.90;;;8.70;;
61393;SDS011;48555;50.952;-0.120;2024-03-17T01:30:11;14.93;;;8.32;;
61393;SDS011;48555;50.952;-0.120;2024-03-17T01:32:37;18.45;;;7.82;;
61393;SDS011;48555;50.952;-0.120;2024-03-17T01:35:03;16.58;;;7.80;;
61393;SDS011;48555;50.952;-0.120;2024-03-17T01:37:28;12.90;;;7.05;;
61393;SDS011;48555;50.952;-0.120;2024-03-17T01:39:57;16.77;;;7.20;;
61393;SDS011;48555;50.952;-0.120;2024-03-17T01:42:23;19.05;;;7.85;;
61393;SDS011;48555;50.952;-0.120;2024-03-17T01:44:48;18.00;;;7.18;;
61393;SDS011;48555;50.952;-0.120;2024-03-17T01:47:15;16.40;;;7.30;;
61393;SDS011;48555;50.952;-0.120;2024-03-17T01:49:41;15.07;;;7.07;;
61393;SDS011;48555;50.952;-0.120;2024-03-17T01:52:06;15.60;;;6.93;;
61393;SDS011;48555;50.952;-0.120;2024-03-17T01:54:32;16.92;;;8.15;;
61393;SDS011;48555;50.952;-0.120;2024-03-17T01:56:57;17.67;;;7.47;;
61393;SDS011;48555;50.952;-0.120;2024-03-17T01:59:23;20.48;;;8.00;;
61393;SDS011;48555;50.952;-0.120;2024-03-17T02:01:48;23.35;;;8.55;;
61393;SDS011;48555;50.952;-0.120;2024-03-17T02:04:14;21.13;;;8.07;;
61393;SDS011;48555;50.952;-0.120;2024-03-17T02:06:42;16.88;;;7.07;;
61393;SDS011;48555;50.952;-0.120;2024-03-17T02:09:07;19.45;;;6.55;;
61393;SDS011;48555;50.952;-0.120;2024-03-17T02:11:34;15.75;;;6.88;;
61393;SDS011;48555;50.952;-0.120;2024-03-17T02:14:00;16.77;;;6.90;;
61393;SDS011;48555;50.952;-0.120;2024-03-17T02:16:26;19.00;;;7.28;;
61393;SDS011;48555;50.952;-0.120;2024-03-17T02:18:55;18.50;;;7.00;;
61393;SDS011;48555;50.952;-0.120;2024-03-17T02:21:21;15.18;;;5.88;;
61393;SDS011;48555;50.952;-0.120;2024-03-17T02:23:52;11.48;;;6.22;;
61393;SDS011;48555;50.952;-0.120;2024-03-17T02:26:18;15.57;;;6.18;;
61393;SDS011;48555;50.952;-0.120;2024-03-17T02:28:44;14.57;;;6.53;;
61393;SDS011;48555;50.952;-0.120;2024-03-17T02:31:11;15.77;;;6.57;;
61393;SDS011;48555;50.952;-0.120;2024-03-17T02:33:38;15.73;;;6.28;;
61393;SDS011;48555;50.952;-0.120;2024-03-17T02:36:03;14.30;;;6.05;;
61393;SDS011;48555;50.952;-0.120;2024-03-17T02:38:31;12.68;;;6.13;;
61393;SDS011;48555;50.952;-0.120;2024-03-17T02:41:16;15.82;;;6.20;;
61393;SDS011;48555;50.952;-0.120;2024-03-17T02:43:41;14.77;;;5.95;;
61393;SDS011;48555;50.952;-0.120;2024-03-17T02:46:06;21.00;;;6.82;;
61393;SDS011;48555;50.952;-0.120;2024-03-17T02:48:36;19.15;;;6.78;;
61393;SDS011;48555;50.952;-0.120;2024-03-17T02:51:02;14.93;;;6.05;;
61393;SDS011;48555;50.952;-0.120;2024-03-17T02:53:29;16.10;;;5.90;;
61393;SDS011;48555;50.952;-0.120;2024-03-17T02:55:55;14.27;;;5.45;;
61393;SDS011;48555;50.952;-0.120;2024-03-17T02:58:20;15.25;;;5.78;;
61393;SDS011;48555;50.952;-0.120;2024-03-17T03:00:45;16.60;;;6.20;;
61393;SDS011;48555;50.952;-0.120;2024-03-17T03:03:11;13.93;;;5.90;;
61393;SDS011;48555;50.952;-0.120;2024-03-17T03:05:36;16.50;;;5.53;;
61393;SDS011;48555;50.952;-0.120;2024-03-17T03:08:01;16.52;;;6.00;;
61393;SDS011;48555;50.952;-0.120;2024-03-17T03:10:26;9.40;;;5.00;;
61393;SDS011;48555;50.952;-0.120;2024-03-17T03:12:52;19.30;;;6.20;;
61393;SDS011;48555;50.952;-0.120;2024-03-17T03:15:17;12.85;;;5.00;;
61393;SDS011;48555;50.952;-0.120;2024-03-17T03:17:43;13.85;;;4.88;;
61393;SDS011;48555;50.952;-0.120;2024-03-17T03:20:08;12.98;;;5.18;;
61393;SDS011;48555;50.952;-0.120;2024-03-17T03:22:34;13.07;;;4.63;;
61393;SDS011;48555;50.952;-0.120;2024-03-17T03:24:59;10.50;;;4.30;;
61393;SDS011;48555;50.952;-0.120;2024-03-17T03:27:25;16.75;;;5.20;;
61393;SDS011;48555;50.952;-0.120;2024-03-17T03:29:50;12.55;;;5.22;;
61393;SDS011;48555;50.952;-0.120;2024-03-17T03:32:15;13.57;;;4.30;;
61393;SDS011;48555;50.952;-0.120;2024-03-17T03:34:42;11.85;;;3.80;;
61393;SDS011;48555;50.952;-0.120;2024-03-17T03:37:08;14.45;;;4.80;;
61393;SDS011;48555;50.952;-0.120;2024-03-17T03:39:34;10.88;;;3.70;;
61393;SDS011;48555;50.952;-0.120;2024-03-17T03:42:01;13.18;;;4.05;;
61393;SDS011;48555;50.952;-0.120;2024-03-17T03:44:27;16.65;;;4.85;;
61393;SDS011;48555;50.952;-0.120;2024-03-17T03:46:53;12.98;;;3.90;;
61393;SDS011;48555;50.952;-0.120;2024-03-17T03:49:22;10.73;;;4.35;;
61393;SDS011;48555;50.952;-0.120;2024-03-17T03:51:48;13.60;;;4.38;;
61393;SDS011;48555;50.952;-0.120;2024-03-17T03:54:13;15.68;;;5.03;;
61393;SDS011;48555;50.952;-0.120;2024-03-17T03:56:38;14.40;;;4.90;;
61393;SDS011;48555;50.952;-0.120;2024-03-17T03:59:04;11.20;;;4.63;;
61393;SDS011;48555;50.952;-0.120;2024-03-17T04:01:30;12.98;;;5.43;;
61393;SDS011;48555;50.952;-0.120;2024-03-17T04:03:56;13.93;;;5.70;;
61393;SDS011;48555;50.952;-0.120;2024-03-17T04:06:21;10.25;;;5.00;;
61393;SDS011;48555;50.952;-0.120;2024-03-17T04:08:46;14.40;;;5.78;;
61393;SDS011;48555;50.952;-0.120;2024-03-17T04:11:12;13.05;;;5.10;;
61393;SDS011;48555;50.952;-0.120;2024-03-17T04:13:37;13.93;;;5.10;;
61393;SDS011;48555;50.952;-0.120;2024-03-17T04:16:06;15.20;;;5.75;;
61393;SDS011;48555;50.952;-0.120;2024-03-17T04:18:32;14.52;;;5.10;;
61393;SDS011;48555;50.952;-0.120;2024-03-17T04:21:01;18.27;;;5.78;;
61393;SDS011;48555;50.952;-0.120;2024-03-17T04:23:28;15.65;;;5.68;;
61393;SDS011;48555;50.952;-0.120;2024-03-17T04:25:55;15.13;;;5.72;;
61393;SDS011;48555;50.952;-0.120;2024-03-17T04:28:21;14.75;;;5.75;;
61393;SDS011;48555;50.952;-0.120;2024-03-17T04:30:46;15.10;;;5.22;;
61393;SDS011;48555;50.952;-0.120;2024-03-17T04:33:12;12.20;;;5.95;;
61393;SDS011;48555;50.952;-0.120;2024-03-17T04:35:38;13.20;;;5.68;;
61393;SDS011;48555;50.952;-0.120;2024-03-17T04:38:04;18.15;;;5.97;;
61393;SDS011;48555;50.952;-0.120;2024-03-17T04:40:34;17.73;;;5.88;;
61393;SDS011;48555;50.952;-0.120;2024-03-17T04:43:00;15.55;;;5.20;;
61393;SDS011;48555;50.952;-0.120;2024-03-17T04:45:25;15.65;;;5.82;;
61393;SDS011;48555;50.952;-0.120;2024-03-17T04:47:51;17.65;;;5.60;;
61393;SDS011;48555;50.952;-0.120;2024-03-17T04:50:16;15.10;;;6.07;;
61393;SDS011;48555;50.952;-0.120;2024-03-17T04:52:42;16.25;;;5.75;;
61393;SDS011;48555;50.952;-0.120;2024-03-17T04:55:07;13.23;;;5.35;;
61393;SDS011;48555;50.952;-0.120;2024-03-17T04:57:33;12.10;;;5.57;;
61393;SDS011;48555;50.952;-0.120;2024-03-17T04:59:58;15.90;;;5.85;;
61393;SDS011;48555;50.952;-0.120;2024-03-17T05:02:23;12.95;;;5.60;;
61393;SDS011;48555;50.952;-0.120;2024-03-17T05:04:49;16.92;;;6.15;;
61393;SDS011;48555;50.952;-0.120;2024-03-17T05:07:15;14.80;;;4.97;;
61393;SDS011;48555;50.952;-0.120;2024-03-17T05:09:40;13.77;;;5.55;;
61393;SDS011;48555;50.952;-0.120;2024-03-17T05:12:06;18.75;;;5.15;;
61393;SDS011;48555;50.952;-0.120;2024-03-17T05:14:31;17.23;;;5.38;;
61393;SDS011;48555;50.952;-0.120;2024-03-17T05:16:57;15.52;;;5.20;;
61393;SDS011;48555;50.952;-0.120;2024-03-17T05:19:22;13.40;;;5.20;;
61393;SDS011;48555;50.952;-0.120;2024-03-17T05:21:48;14.23;;;4.72;;
61393;SDS011;48555;50.952;-0.120;2024-03-17T05:24:13;16.77;;;5.72;;
61393;SDS011;48555;50.952;-0.120;2024-03-17T05:26:39;18.27;;;5.30;;
61393;SDS011;48555;50.952;-0.120;2024-03-17T05:29:04;15.27;;;4.43;;
61393;SDS011;48555;50.952;-0.120;2024-03-17T05:31:30;14.30;;;4.32;;
61393;SDS011;48555;50.952;-0.120;2024-03-17T05:33:56;13.90;;;4.25;;
61393;SDS011;48555;50.952;-0.120;2024-03-17T05:36:22;14.25;;;4.43;;
61393;SDS011;48555;50.952;-0.120;2024-03-17T05:38:47;14.52;;;5.05;;
61393;SDS011;48555;50.952;-0.120;2024-03-17T05:41:13;19.55;;;4.68;;
61393;SDS011;48555;50.952;-0.120;2024-03-17T05:43:39;14.57;;;4.60;;
61393;SDS011;48555;50.952;-0.120;2024-03-17T05:46:08;13.05;;;4.20;;
61393;SDS011;48555;50.952;-0.120;2024-03-17T05:48:37;14.95;;;4.20;;
61393;SDS011;48555;50.952;-0.120;2024-03-17T05:51:04;21.10;;;5.25;;
61393;SDS011;48555;50.952;-0.120;2024-03-17T05:53:30;17.98;;;4.65;;
61393;SDS011;48555;50.952;-0.120;2024-03-17T05:55:59;13.65;;;4.75;;
61393;SDS011;48555;50.952;-0.120;2024-03-17T05:58:24;15.80;;;4.07;;
61393;SDS011;48555;50.952;-0.120;2024-03-17T06:00:50;16.42;;;4.20;;
61393;SDS011;48555;50.952;-0.120;2024-03-17T06:03:15;11.30;;;4.53;;
61393;SDS011;48555;50.952;-0.120;2024-03-17T06:05:42;17.38;;;4.13;;
61393;SDS011;48555;50.952;-0.120;2024-03-17T06:08:08;12.75;;;4.00;;
61393;SDS011;48555;50.952;-0.120;2024-03-17T06:10:34;11.90;;;4.18;;
61393;SDS011;48555;50.952;-0.120;2024-03-17T06:13:01;11.75;;;3.78;;
61393;SDS011;48555;50.952;-0.120;2024-03-17T06:15:27;12.98;;;4.20;;
61393;SDS011;48555;50.952;-0.120;2024-03-17T06:17:53;12.27;;;4.00;;
61393;SDS011;48555;50.952;-0.120;2024-03-17T06:20:25;13.75;;;4.05;;
61393;SDS011;48555;50.952;-0.120;2024-03-17T06:22:53;11.57;;;4.45;;
61393;SDS011;48555;50.952;-0.120;2024-03-17T06:25:19;14.88;;;3.78;;
61393;SDS011;48555;50.952;-0.120;2024-03-17T06:27:44;15.18;;;4.38;;
61393;SDS011;48555;50.952;-0.120;2024-03-17T06:30:13;12.70;;;4.30;;
61393;SDS011;48555;50.952;-0.120;2024-03-17T06:32:41;11.35;;;4.18;;
61393;SDS011;48555;50.952;-0.120;2024-03-17T06:35:09;17.92;;;4.93;;
61393;SDS011;48555;50.952;-0.120;2024-03-17T06:37:34;13.27;;;4.38;;
61393;SDS011;48555;50.952;-0.120;2024-03-17T06:40:01;14.95;;;4.20;;
61393;SDS011;48555;50.952;-0.120;2024-03-17T06:42:28;15.43;;;4.60;;
61393;SDS011;48555;50.952;-0.120;2024-03-17T06:44:53;11.20;;;3.97;;
61393;SDS011;48555;50.952;-0.120;2024-03-17T06:47:18;13.48;;;4.22;;
61393;SDS011;48555;50.952;-0.120;2024-03-17T06:49:44;15.20;;;4.38;;
61393;SDS011;48555;50.952;-0.120;2024-03-17T06:52:10;17.52;;;4.53;;
61393;SDS011;48555;50.952;-0.120;2024-03-17T06:54:35;13.02;;;4.60;;
61393;SDS011;48555;50.952;-0.120;2024-03-17T06:57:01;10.35;;;3.78;;
61393;SDS011;48555;50.952;-0.120;2024-03-17T06:59:26;10.98;;;3.53;;
61393;SDS011;48555;50.952;-0.120;2024-03-17T07:01:52;12.13;;;3.80;;
61393;SDS011;48555;50.952;-0.120;2024-03-17T07:04:17;13.82;;;3.80;;
61393;SDS011;48555;50.952;-0.120;2024-03-17T07:06:42;12.18;;;3.45;;
61393;SDS011;48555;50.952;-0.120;2024-03-17T07:09:08;10.57;;;3.63;;
61393;SDS011;48555;50.952;-0.120;2024-03-17T07:11:33;6.68;;;3.10;;
61393;SDS011;48555;50.952;-0.120;2024-03-17T07:13:59;14.10;;;3.50;;
61393;SDS011;48555;50.952;-0.120;2024-03-17T07:16:24;11.85;;;3.60;;
61393;SDS011;48555;50.952;-0.120;2024-03-17T07:18:50;9.30;;;2.90;;
61393;SDS011;48555;50.952;-0.120;2024-03-17T07:21:17;13.93;;;3.63;;
61393;SDS011;48555;50.952;-0.120;2024-03-17T07:23:43;10.38;;;3.10;;
61393;SDS011;48555;50.952;-0.120;2024-03-17T07:26:09;11.15;;;3.17;;
61393;SDS011;48555;50.952;-0.120;2024-03-17T07:28:34;8.82;;;3.03;;
61393;SDS011;48555;50.952;-0.120;2024-03-17T07:31:00;9.05;;;2.90;;
61393;SDS011;48555;50.952;-0.120;2024-03-17T07:33:26;10.10;;;3.00;;
61393;SDS011;48555;50.952;-0.120;2024-03-17T07:35:54;9.70;;;3.10;;
61393;SDS011;48555;50.952;-0.120;2024-03-17T07:38:21;12.25;;;3.13;;
61393;SDS011;48555;50.952;-0.120;2024-03-17T07:43:34;9.55;;;3.03;;
61393;SDS011;48555;50.952;-0.120;2024-03-17T07:46:04;9.95;;;2.90;;
61393;SDS011;48555;50.952;-0.120;2024-03-17T07:48:32;9.18;;;2.78;;
61393;SDS011;48555;50.952;-0.120;2024-03-17T07:51:00;9.30;;;2.80;;
61393;SDS011;48555;50.952;-0.120;2024-03-17T07:53:28;8.23;;;2.42;;
61393;SDS011;48555;50.952;-0.120;2024-03-17T07:56:01;10.63;;;2.53;;
61393;SDS011;48555;50.952;-0.120;2024-03-17T07:58:31;9.60;;;2.70;;
61393;SDS011;48555;50.952;-0.120;2024-03-17T08:01:01;8.23;;;2.57;;
61393;SDS011;48555;50.952;-0.120;2024-03-17T08:03:41;7.32;;;2.42;;
61393;SDS011;48555;50.952;-0.120;2024-03-17T08:06:10;8.18;;;2.58;;
61393;SDS011;48555;50.952;-0.120;2024-03-17T08:08:36;9.82;;;2.58;;
61393;SDS011;48555;50.952;-0.120;2024-03-17T08:11:01;9.68;;;2.70;;
61393;SDS011;48555;50.952;-0.120;2024-03-17T08:13:30;7.80;;;2.25;;
61393;SDS011;48555;50.952;-0.120;2024-03-17T08:16:03;8.00;;;2.47;;
61393;SDS011;48555;50.952;-0.120;2024-03-17T08:18:34;7.22;;;1.90;;
61393;SDS011;48555;50.952;-0.120;2024-03-17T08:21:00;4.97;;;1.95;;
61393;SDS011;48555;50.952;-0.120;2024-03-17T08:23:26;7.82;;;2.22;;
61393;SDS011;48555;50.952;-0.120;2024-03-17T08:25:55;4.45;;;1.33;;
61393;SDS011;48555;50.952;-0.120;2024-03-17T08:28:22;5.10;;;1.75;;
61393;SDS011;48555;50.952;-0.120;2024-03-17T08:30:55;6.38;;;2.28;;
61393;SDS011;48555;50.952;-0.120;2024-03-17T08:33:21;7.13;;;1.90;;
61393;SDS011;48555;50.952;-0.120;2024-03-17T08:35:58;6.18;;;2.03;;
61393;SDS011;48555;50.952;-0.120;2024-03-17T08:38:28;5.60;;;2.03;;
61393;SDS011;48555;50.952;-0.120;2024-03-17T08:40:55;8.38;;;1.90;;
61393;SDS011;48555;50.952;-0.120;2024-03-17T08:43:21;7.70;;;1.83;;
61393;SDS011;48555;50.952;-0.120;2024-03-17T08:45:56;4.70;;;1.45;;
61393;SDS011;48555;50.952;-0.120;2024-03-17T08:48:25;4.32;;;1.20;;
61393;SDS011;48555;50.952;-0.120;2024-03-17T08:50:51;5.28;;;1.35;;
61393;SDS011;48555;50.952;-0.120;2024-03-17T08:53:18;4.80;;;1.40;;
61393;SDS011;48555;50.952;-0.120;2024-03-17T08:55:44;2.80;;;1.30;;
61393;SDS011;48555;50.952;-0.120;2024-03-17T08:58:09;2.20;;;0.90;;
61393;SDS011;48555;50.952;-0.120;2024-03-17T09:00:35;1.75;;;0.90;;
61393;SDS011;48555;50.952;-0.120;2024-03-17T09:03:01;3.00;;;1.00;;
61393;SDS011;48555;50.952;-0.120;2024-03-17T09:05:27;2.85;;;0.80;;
61393;SDS011;48555;50.952;-0.120;2024-03-17T09:07:52;3.45;;;1.13;;
61393;SDS011;48555;50.952;-0.120;2024-03-17T09:10:17;2.72;;;0.90;;
61393;SDS011;48555;50.952;-0.120;2024-03-17T09:12:43;2.40;;;0.95;;
61393;SDS011;48555;50.952;-0.120;2024-03-17T09:15:08;3.03;;;1.23;;
61393;SDS011;48555;50.952;-0.120;2024-03-17T09:17:36;3.70;;;0.88;;
61393;SDS011;48555;50.952;-0.120;2024-03-17T09:20:02;2.05;;;0.60;;
61393;SDS011;48555;50.952;-0.120;2024-03-17T09:22:27;1.70;;;0.70;;
61393;SDS011;48555;50.952;-0.120;2024-03-17T09:24:54;2.10;;;0.85;;
61393;SDS011;48555;50.952;-0.120;2024-03-17T09:27:19;1.00;;;0.55;;
61393;SDS011;48555;50.952;-0.120;2024-03-17T09:29:47;2.03;;;0.60;;
61393;SDS011;48555;50.952;-0.120;2024-03-17T09:32:12;2.75;;;0.68;;
61393;SDS011;48555;50.952;-0.120;2024-03-17T09:34:42;0.98;;;0.60;;
61393;SDS011;48555;50.952;-0.120;2024-03-17T09:37:12;1.85;;;0.50;;
61393;SDS011;48555;50.952;-0.120;2024-03-17T09:39:37;1.10;;;0.35;;
61393;SDS011;48555;50.952;-0.120;2024-03-17T09:42:03;1.92;;;0.63;;
61393;SDS011;48555;50.952;-0.120;2024-03-17T09:44:30;0.75;;;0.40;;
61393;SDS011;48555;50.952;-0.120;2024-03-17T09:46:59;0.77;;;0.57;;
61393;SDS011;48555;50.952;-0.120;2024-03-17T09:49:25;1.70;;;0.40;;
61393;SDS011;48555;50.952;-0.120;2024-03-17T09:51:51;1.10;;;0.43;;
61393;SDS011;48555;50.952;-0.120;2024-03-17T09:54:22;0.28;;;0.20;;
61393;SDS011;48555;50.952;-0.120;2024-03-17T09:56:48;0.95;;;0.32;;
61393;SDS011;48555;50.952;-0.120;2024-03-17T09:59:13;3.25;;;0.60;;
61393;SDS011;48555;50.952;-0.120;2024-03-17T10:01:39;3.15;;;0.70;;
61393;SDS011;48555;50.952;-0.120;2024-03-17T10:04:04;2.97;;;0.70;;
61393;SDS011;48555;50.952;-0.120;2024-03-17T10:06:30;2.40;;;0.63;;
61393;SDS011;48555;50.952;-0.120;2024-03-17T10:08:57;1.55;;;0.60;;
61393;SDS011;48555;50.952;-0.120;2024-03-17T10:11:23;2.28;;;0.73;;
61393;SDS011;48555;50.952;-0.120;2024-03-17T10:13:59;2.55;;;0.75;;
61393;SDS011;48555;50.952;-0.120;2024-03-17T10:16:26;5.93;;;1.30;;
61393;SDS011;48555;50.952;-0.120;2024-03-17T10:19:13;3.25;;;1.17;;
61393;SDS011;48555;50.952;-0.120;2024-03-17T10:26:49;2.70;;;0.93;;
61393;SDS011;48555;50.952;-0.120;2024-03-17T10:31:48;3.90;;;1.30;;
61393;SDS011;48555;50.952;-0.120;2024-03-17T10:34:16;4.30;;;1.20;;
61393;SDS011;48555;50.952;-0.120;2024-03-17T10:36:43;5.32;;;1.70;;
61393;SDS011;48555;50.952;-0.120;2024-03-17T10:39:25;5.10;;;1.85;;
61393;SDS011;48555;50.952;-0.120;2024-03-17T10:41:56;8.15;;;1.48;;
61393;SDS011;48555;50.952;-0.120;2024-03-17T10:44:23;5.32;;;1.67;;
61393;SDS011;48555;50.952;-0.120;2024-03-17T10:46:49;5.35;;;1.40;;
61393;SDS011;48555;50.952;-0.120;2024-03-17T10:49:17;5.65;;;1.50;;
61393;SDS011;48555;50.952;-0.120;2024-03-17T10:51:43;5.57;;;1.70;;
61393;SDS011;48555;50.952;-0.120;2024-03-17T10:54:14;5.57;;;1.77;;
61393;SDS011;48555;50.952;-0.120;2024-03-17T10:56:48;5.57;;;1.40;;
61393;SDS011;48555;50.952;-0.120;2024-03-17T10:59:14;3.92;;;1.50;;
61393;SDS011;48555;50.952;-0.120;2024-03-17T11:01:43;2.85;;;1.20;;
61393;SDS011;48555;50.952;-0.120;2024-03-17T11:04:09;6.00;;;1.42;;
61393;SDS011;48555;50.952;-0.120;2024-03-17T11:06:38;4.80;;;1.30;;
61393;SDS011;48555;50.952;-0.120;2024-03-17T11:09:05;4.53;;;1.48;;
61393;SDS011;48555;50.952;-0.120;2024-03-17T11:11:38;3.15;;;1.13;;
61393;SDS011;48555;50.952;-0.120;2024-03-17T11:14:22;4.80;;;1.50;;
61393;SDS011;48555;50.952;-0.120;2024-03-17T11:16:48;2.60;;;1.10;;
61393;SDS011;48555;50.952;-0.120;2024-03-17T11:19:14;3.00;;;1.08;;
61393;SDS011;48555;50.952;-0.120;2024-03-17T11:21:41;1.27;;;0.95;;
61393;SDS011;48555;50.952;-0.120;2024-03-17T11:24:07;5.00;;;1.42;;
61393;SDS011;48555;50.952;-0.120;2024-03-17T11:26:44;4.03;;;1.33;;
61393;SDS011;48555;50.952;-0.120;2024-03-17T11:29:23;4.68;;;1.58;;
61393;SDS011;48555;50.952;-0.120;2024-03-17T11:31:52;3.25;;;1.35;;
61393;SDS011;48555;50.952;-0.120;2024-03-17T11:36:56;2.97;;;1.67;;
61393;SDS011;48555;50.952;-0.120;2024-03-17T11:42:21;5.07;;;2.20;;
61393;SDS011;48555;50.952;-0.120;2024-03-17T11:45:00;5.50;;;2.45;;
61393;SDS011;48555;50.952;-0.120;2024-03-17T11:47:35;6.32;;;2.22;;
61393;SDS011;48555;50.952;-0.120;2024-03-17T11:50:03;4.45;;;2.33;;
61393;SDS011;48555;50.952;-0.120;2024-03-17T11:52:29;5.25;;;2.28;;
61393;SDS011;48555;50.952;-0.120;2024-03-17T11:54:55;5.18;;;2.17;;
61393;SDS011;48555;50.952;-0.120;2024-03-17T11:57:22;5.75;;;2.10;;
61393;SDS011;48555;50.952;-0.120;2024-03-17T11:59:49;5.32;;;2.40;;
61393;SDS011;48555;50.952;-0.120;2024-03-17T12:02:16;5.57;;;2.25;;
61393;SDS011;48555;50.952;-0.120;2024-03-17T12:04:43;6.65;;;2.10;;
61393;SDS011;48555;50.952;-0.120;2024-03-17T12:07:13;5.50;;;2.63;;
61393;SDS011;48555;50.952;-0.120;2024-03-17T12:09:43;6.68;;;2.30;;
61393;SDS011;48555;50.952;-0.120;2024-03-17T12:12:22;5.75;;;2.08;;
61393;SDS011;48555;50.952;-0.120;2024-03-17T12:14:49;5.43;;;2.20;;
61393;SDS011;48555;50.952;-0.120;2024-03-17T12:17:20;5.57;;;2.35;;
61393;SDS011;48555;50.952;-0.120;2024-03-17T12:22:15;4.72;;;2.70;;
61393;SDS011;48555;50.952;-0.120;2024-03-17T12:24:43;8.57;;;2.60;;
61393;SDS011;48555;50.952;-0.120;2024-03-17T12:27:09;6.22;;;3.05;;
61393;SDS011;48555;50.952;-0.120;2024-03-17T12:29:42;6.88;;;2.63;;
61393;SDS011;48555;50.952;-0.120;2024-03-17T12:32:11;6.88;;;2.50;;
61393;SDS011;48555;50.952;-0.120;2024-03-17T12:34:46;5.97;;;2.55;;
61393;SDS011;48555;50.952;-0.120;2024-03-17T12:37:17;6.68;;;2.50;;
61393;SDS011;48555;50.952;-0.120;2024-03-17T12:39:44;8.38;;;3.20;;
61393;SDS011;48555;50.952;-0.120;2024-03-17T12:42:12;5.97;;;2.65;;
61393;SDS011;48555;50.952;-0.120;2024-03-17T12:44:51;6.43;;;2.60;;
61393;SDS011;48555;50.952;-0.120;2024-03-17T12:47:19;6.18;;;2.63;;
61393;SDS011;48555;50.952;-0.120;2024-03-17T12:52:21;6.07;;;2.50;;
61393;SDS011;48555;50.952;-0.120;2024-03-17T12:55:00;4.55;;;2.45;;
61393;SDS011;48555;50.952;-0.120;2024-03-17T12:57:47;6.45;;;2.45;;
61393;SDS011;48555;50.952;-0.120;2024-03-17T13:00:31;5.30;;;2.55;;
61393;SDS011;48555;50.952;-0.120;2024-03-17T13:02:57;6.13;;;2.55;;
61393;SDS011;48555;50.952;-0.120;2024-03-17T13:05:23;5.65;;;2.60;;
61393;SDS011;48555;50.952;-0.120;2024-03-17T13:07:49;5.80;;;2.42;;
61393;SDS011;48555;50.952;-0.120;2024-03-17T13:10:16;4.90;;;2.40;;
61393;SDS011;48555;50.952;-0.120;2024-03-17T13:12:43;6.28;;;2.63;;
61393;SDS011;48555;50.952;-0.120;2024-03-17T13:15:10;4.15;;;2.25;;
61393;SDS011;48555;50.952;-0.120;2024-03-17T13:17:38;4.72;;;2.60;;
61393;SDS011;48555;50.952;-0.120;2024-03-17T13:20:04;6.78;;;2.30;;
61393;SDS011;48555;50.952;-0.120;2024-03-17T13:22:33;5.95;;;2.30;;
61393;SDS011;48555;50.952;-0.120;2024-03-17T13:24:59;6.15;;;2.08;;
61393;SDS011;48555;50.952;-0.120;2024-03-17T13:27:24;6.35;;;2.10;;
61393;SDS011;48555;50.952;-0.120;2024-03-17T13:29:50;4.53;;;1.65;;
61393;SDS011;48555;50.952;-0.120;2024-03-17T13:32:15;3.90;;;1.75;;
61393;SDS011;48555;50.952;-0.120;2024-03-17T13:34:42;4.28;;;2.20;;
61393;SDS011;48555;50.952;-0.120;2024-03-17T13:37:07;4.65;;;2.17;;
61393;SDS011;48555;50.952;-0.120;2024-03-17T13:39:33;4.78;;;2.10;;
61393;SDS011;48555;50.952;-0.120;2024-03-17T13:41:58;4.90;;;1.95;;
61393;SDS011;48555;50.952;-0.120;2024-03-17T13:44:31;4.28;;;1.70;;
61393;SDS011;48555;50.952;-0.120;2024-03-17T13:46:57;3.42;;;1.80;;
61393;SDS011;48555;50.952;-0.120;2024-03-17T13:49:23;5.03;;;1.80;;
61393;SDS011;48555;50.952;-0.120;2024-03-17T13:51:48;3.45;;;1.70;;
61393;SDS011;48555;50.952;-0.120;2024-03-17T13:54:14;3.30;;;1.77;;
61393;SDS011;48555;50.952;-0.120;2024-03-17T13:56:40;3.95;;;1.88;;
61393;SDS011;48555;50.952;-0.120;2024-03-17T13:59:05;4.28;;;1.83;;
61393;SDS011;48555;50.952;-0.120;2024-03-17T14:01:30;3.40;;;1.77;;
61393;SDS011;48555;50.952;-0.120;2024-03-17T14:03:56;3.63;;;1.75;;
61393;SDS011;48555;50.952;-0.120;2024-03-17T14:06:21;4.53;;;1.65;;
61393;SDS011;48555;50.952;-0.120;2024-03-17T14:08:46;3.83;;;1.58;;
61393;SDS011;48555;50.952;-0.120;2024-03-17T14:11:12;3.25;;;1.20;;
61393;SDS011;48555;50.952;-0.120;2024-03-17T14:13:38;6.32;;;1.58;;
61393;SDS011;48555;50.952;-0.120;2024-03-17T14:16:03;3.85;;;1.42;;
61393;SDS011;48555;50.952;-0.120;2024-03-17T14:18:30;2.25;;;1.05;;
61393;SDS011;48555;50.952;-0.120;2024-03-17T14:20:57;2.25;;;1.25;;
61393;SDS011;48555;50.952;-0.120;2024-03-17T14:23:23;4.57;;;1.27;;
61393;SDS011;48555;50.952;-0.120;2024-03-17T14:25:49;4.10;;;1.40;;
61393;SDS011;48555;50.952;-0.120;2024-03-17T14:28:15;4.85;;;1.42;;
61393;SDS011;48555;50.952;-0.120;2024-03-17T14:30:40;3.60;;;1.17;;
61393;SDS011;48555;50.952;-0.120;2024-03-17T14:33:06;3.45;;;1.55;;
61393;SDS011;48555;50.952;-0.120;2024-03-17T14:35:32;3.95;;;1.60;;
61393;SDS011;48555;50.952;-0.120;2024-03-17T14:37:58;5.75;;;1.90;;
61393;SDS011;48555;50.952;-0.120;2024-03-17T14:40:25;3.83;;;1.80;;
61393;SDS011;48555;50.952;-0.120;2024-03-17T14:42:53;4.05;;;2.08;;
61393;SDS011;48555;50.952;-0.120;2024-03-17T14:45:20;3.20;;;1.75;;
61393;SDS011;48555;50.952;-0.120;2024-03-17T14:47:48;4.00;;;1.75;;
61393;SDS011;48555;50.952;-0.120;2024-03-17T14:50:14;5.43;;;1.80;;